sensor_id;sensor_type;location;lat;lon;timestamp;pressure;altitude;pressure_sealevel;temperature;humidity
5996;BME280;3026;53.612;7.278;2023-03-12T00:00:03;101043.19;;;2.20;100.00
5996;BME280;3026;53.612;7.278;2023-03-12T00:02:33;101038.25;;;2.14;100.00
5996;BME280;3026;53.612;7.278;2023-03-12T00:04:59;101039.97;;;2.15;100.00
5996;BME280;3026;53.612;7.278;2023-03-12T00:07:26;101037.63;;;2.11;100.00
5996;BME280;3026;53.612;7.278;2023-03-12T00:09:53;101040.44;;;2.09;100.00
5996;BME280;3026;53.612;7.278;2023-03-12T00:12:22;101034.50;;;2.04;100.00
5996;BME280;3026;53.612;7.278;2023-03-12T00:14:48;101045.50;;;2.01;100.00
5996;BME280;3026;53.612;7.278;2023-03-12T00:17:15;101043.06;;;1.98;100.00
5996;BME280;3026;53.612;7.278;2023-03-12T00:19:42;101037.03;;;1.94;100.00
5996;BME280;3026;53.612;7.278;2023-03-12T00:22:09;101036.41;;;1.91;100.00
5996;BME280;3026;53.612;7.278;2023-03-12T00:24:36;101033.59;;;1.92;100.00
5996;BME280;3026;53.612;7.278;2023-03-12T00:27:03;101034.69;;;1.90;100.00
5996;BME280;3026;53.612;7.278;2023-03-12T00:29:31;101031.25;;;1.88;100.00
5996;BME280;3026;53.612;7.278;2023-03-12T00:31:58;101030.50;;;1.86;100.00
5996;BME280;3026;53.612;7.278;2023-03-12T00:34:25;101032.78;;;1.79;100.00
5996;BME280;3026;53.612;7.278;2023-03-12T00:36:52;101034.06;;;1.73;100.00
5996;BME280;3026;53.612;7.278;2023-03-12T00:39:18;101027.19;;;1.69;100.00
5996;BME280;3026;53.612;7.278;2023-03-12T00:41:45;101028.41;;;1.65;100.00
5996;BME280;3026;53.612;7.278;2023-03-12T00:44:12;101029.56;;;1.61;100.00
5996;BME280;3026;53.612;7.278;2023-03-12T00:46:41;101027.13;;;1.58;100.00
5996;BME280;3026;53.612;7.278;2023-03-12T00:49:07;101021.00;;;1.56;100.00
5996;BME280;3026;53.612;7.278;2023-03-12T00:51:36;101021.41;;;1.50;100.00
5996;BME280;3026;53.612;7.278;2023-03-12T00:54:03;101023.59;;;1.45;100.00
5996;BME280;3026;53.612;7.278;2023-03-12T00:56:30;101024.78;;;1.41;100.00
5996;BME280;3026;53.612;7.278;2023-03-12T00:58:57;101014.34;;;1.36;100.00
5996;BME280;3026;53.612;7.278;2023-03-12T01:01:24;101019.09;;;1.33;100.00
5996;BME280;3026;53.612;7.278;2023-03-12T01:03:56;101016.09;;;1.25;100.00
5996;BME280;3026;53.612;7.278;2023-03-12T01:06:24;101012.66;;;1.23;100.00
5996;BME280;3026;53.612;7.278;2023-03-12T01:08:51;101025.34;;;1.21;100.00
5996;BME280;3026;53.612;7.278;2023-03-12T01:11:19;101020.19;;;1.17;100.00
5996;BME280;3026;53.612;7.278;2023-03-12T01:13:47;101024.03;;;1.13;100.00
5996;BME280;3026;53.612;7.278;2023-03-12T01:16:13;101012.03;;;1.06;100.00
5996;BME280;3026;53.612;7.278;2023-03-12T01:18:41;101020.81;;;1.08;100.00
5996;BME280;3026;53.612;7.278;2023-03-12T01:21:09;101003.22;;;1.04;100.00
5996;BME280;3026;53.612;7.278;2023-03-12T01:23:36;101018.16;;;1.08;100.00
5996;BME280;3026;53.612;7.278;2023-03-12T01:26:03;101014.59;;;1.08;100.00
5996;BME280;3026;53.612;7.278;2023-03-12T01:28:30;101013.75;;;1.07;100.00
5996;BME280;3026;53.612;7.278;2023-03-12T01:30:57;101015.47;;;1.08;100.00
5996;BME280;3026;53.612;7.278;2023-03-12T01:33:24;101012.78;;;1.08;100.00
5996;BME280;3026;53.612;7.278;2023-03-12T01:35:50;101011.81;;;1.09;100.00
5996;BME280;3026;53.612;7.278;2023-03-12T01:38:19;101003.75;;;1.09;100.00
5996;BME280;3026;53.612;7.278;2023-03-12T01:40:45;101003.97;;;1.06;100.00
5996;BME280;3026;53.612;7.278;2023-03-12T01:43:25;101006.44;;;1.09;100.00
5996;BME280;3026;53.612;7.278;2023-03-12T01:48:47;101003.00;;;1.07;100.00
5996;BME280;3026;53.612;7.278;2023-03-12T01:51:16;101001.19;;;1.08;100.00
5996;BME280;3026;53.612;7.278;2023-03-12T01:53:47;100997.63;;;1.07;100.00
5996;BME280;3026;53.612;7.278;2023-03-12T01:56:16;100999.13;;;1.11;100.00
5996;BME280;3026;53.612;7.278;2023-03-12T01:58:48;100993.13;;;1.08;100.00
5996;BME280;3026;53.612;7.278;2023-03-12T02:01:18;100995.47;;;1.12;100.00
5996;BME280;3026;53.612;7.278;2023-03-12T02:03:46;100990.09;;;1.12;100.00
5996;BME280;3026;53.612;7.278;2023-03-12T02:06:15;100992.66;;;1.14;100.00
5996;BME280;3026;53.612;7.278;2023-03-12T02:08:46;100986.44;;;1.13;100.00
5996;BME280;3026;53.612;7.278;2023-03-12T02:11:13;100990.09;;;1.12;100.00
5996;BME280;3026;53.612;7.278;2023-03-12T02:13:40;100989.00;;;1.15;100.00
5996;BME280;3026;53.612;7.278;2023-03-12T02:16:08;100984.50;;;1.15;100.00
5996;BME280;3026;53.612;7.278;2023-03-12T02:18:35;100977.41;;;1.14;100.00
5996;BME280;3026;53.612;7.278;2023-03-12T02:21:09;100977.63;;;1.11;100.00
5996;BME280;3026;53.612;7.278;2023-03-12T02:23:40;100971.41;;;1.11;100.00
5996;BME280;3026;53.612;7.278;2023-03-12T02:26:10;100971.84;;;1.05;100.00
5996;BME280;3026;53.612;7.278;2023-03-12T02:28:38;100967.34;;;1.05;100.00
5996;BME280;3026;53.612;7.278;2023-03-12T02:31:12;100971.00;;;1.04;100.00
5996;BME280;3026;53.612;7.278;2023-03-12T02:33:40;100969.47;;;1.00;100.00
5996;BME280;3026;53.612;7.278;2023-03-12T02:36:07;100971.41;;;0.98;100.00
5996;BME280;3026;53.612;7.278;2023-03-12T02:38:41;100963.59;;;0.95;100.00
5996;BME280;3026;53.612;7.278;2023-03-12T02:41:14;100962.84;;;0.93;100.00
5996;BME280;3026;53.612;7.278;2023-03-12T02:43:45;100955.09;;;0.88;100.00
5996;BME280;3026;53.612;7.278;2023-03-12T02:46:13;100945.66;;;0.83;100.00
5996;BME280;3026;53.612;7.278;2023-03-12T02:48:40;100947.78;;;0.78;100.00
5996;BME280;3026;53.612;7.278;2023-03-12T02:51:07;100955.97;;;0.76;100.00
5996;BME280;3026;53.612;7.278;2023-03-12T02:53:34;100937.69;;;0.69;100.00
5996;BME280;3026;53.612;7.278;2023-03-12T02:56:01;100948.22;;;0.72;100.00
5996;BME280;3026;53.612;7.278;2023-03-12T02:58:29;100947.38;;;0.71;100.00
5996;BME280;3026;53.612;7.278;2023-03-12T03:00:56;100950.19;;;0.70;100.00
5996;BME280;3026;53.612;7.278;2023-03-12T03:03:23;100952.06;;;0.68;100.00
5996;BME280;3026;53.612;7.278;2023-03-12T03:05:50;100951.34;;;0.66;100.00
5996;BME280;3026;53.612;7.278;2023-03-12T03:08:17;100954.00;;;0.66;100.00
5996;BME280;3026;53.612;7.278;2023-03-12T03:10:44;100964.75;;;0.66;100.00
5996;BME280;3026;53.612;7.278;2023-03-12T03:13:11;100961.31;;;0.64;100.00
5996;BME280;3026;53.612;7.278;2023-03-12T03:15:39;100950.81;;;0.61;100.00
5996;BME280;3026;53.612;7.278;2023-03-12T03:18:06;100954.25;;;0.63;100.00
5996;BME280;3026;53.612;7.278;2023-03-12T03:20:33;100949.84;;;0.62;100.00
5996;BME280;3026;53.612;7.278;2023-03-12T03:22:59;100938.25;;;0.61;100.00
5996;BME280;3026;53.612;7.278;2023-03-12T03:25:27;100934.72;;;0.61;100.00
5996;BME280;3026;53.612;7.278;2023-03-12T03:27:54;100937.28;;;0.62;100.00
5996;BME280;3026;53.612;7.278;2023-03-12T03:30:21;100936.19;;;0.65;100.00
5996;BME280;3026;53.612;7.278;2023-03-12T03:32:49;100936.94;;;0.67;100.00
5996;BME280;3026;53.612;7.278;2023-03-12T03:35:17;100932.53;;;0.66;100.00
5996;BME280;3026;53.612;7.278;2023-03-12T03:37:44;100939.44;;;0.70;100.00
5996;BME280;3026;53.612;7.278;2023-03-12T03:40:11;100929.56;;;0.70;100.00
5996;BME280;3026;53.612;7.278;2023-03-12T03:42:38;100923.34;;;0.70;100.00
5996;BME280;3026;53.612;7.278;2023-03-12T03:45:07;100925.25;;;0.68;100.00
5996;BME280;3026;53.612;7.278;2023-03-12T03:47:35;100926.09;;;0.68;100.00
5996;BME280;3026;53.612;7.278;2023-03-12T03:50:05;100932.31;;;0.69;100.00
5996;BME280;3026;53.612;7.278;2023-03-12T03:52:32;100925.25;;;0.68;100.00
5996;BME280;3026;53.612;7.278;2023-03-12T03:54:59;100922.56;;;0.68;100.00
5996;BME280;3026;53.612;7.278;2023-03-12T03:57:27;100922.56;;;0.68;100.00
5996;BME280;3026;53.612;7.278;2023-03-12T03:59:54;100914.72;;;0.65;100.00
5996;BME280;3026;53.612;7.278;2023-03-12T04:02:21;100910.44;;;0.62;100.00
5996;BME280;3026;53.612;7.278;2023-03-12T04:04:48;100906.16;;;0.60;100.00
5996;BME280;3026;53.612;7.278;2023-03-12T04:07:17;100910.56;;;0.61;100.00
5996;BME280;3026;53.612;7.278;2023-03-12T04:09:44;100912.38;;;0.60;100.00
5996;BME280;3026;53.612;7.278;2023-03-12T04:12:11;100918.59;;;0.61;100.00
5996;BME280;3026;53.612;7.278;2023-03-12T04:14:39;100907.88;;;0.61;100.00
5996;BME280;3026;53.612;7.278;2023-03-12T04:17:06;100906.16;;;0.60;100.00
5996;BME280;3026;53.612;7.278;2023-03-12T04:19:33;100903.38;;;0.61;100.00
5996;BME280;3026;53.612;7.278;2023-03-12T04:22:00;100899.06;;;0.58;100.00
5996;BME280;3026;53.612;7.278;2023-03-12T04:24:29;100895.44;;;0.60;100.00
5996;BME280;3026;53.612;7.278;2023-03-12T04:26:56;100895.19;;;0.63;100.00
5996;BME280;3026;53.612;7.278;2023-03-12T04:29:23;100881.91;;;0.61;100.00
5996;BME280;3026;53.612;7.278;2023-03-12T04:31:50;100883.50;;;0.64;100.00
5996;BME280;3026;53.612;7.278;2023-03-12T04:34:17;100865.56;;;0.64;100.00
5996;BME280;3026;53.612;7.278;2023-03-12T04:36:45;100867.16;;;0.67;100.00
5996;BME280;3026;53.612;7.278;2023-03-12T04:39:12;100864.50;;;0.67;100.00
5996;BME280;3026;53.612;7.278;2023-03-12T04:41:41;100866.00;;;0.71;100.00
5996;BME280;3026;53.612;7.278;2023-03-12T04:44:08;100855.47;;;0.68;100.00
5996;BME280;3026;53.612;7.278;2023-03-12T04:46:34;100857.19;;;0.69;100.00
5996;BME280;3026;53.612;7.278;2023-03-12T04:49:02;100859.78;;;0.70;100.00
5996;BME280;3026;53.612;7.278;2023-03-12T04:51:29;100857.19;;;0.69;100.00
5996;BME280;3026;53.612;7.278;2023-03-12T04:53:56;100847.31;;;0.69;100.00
5996;BME280;3026;53.612;7.278;2023-03-12T04:56:23;100855.28;;;0.71;100.00
5996;BME280;3026;53.612;7.278;2023-03-12T04:58:52;100844.31;;;0.74;100.00
5996;BME280;3026;53.612;7.278;2023-03-12T05:01:23;100826.72;;;0.70;100.00
5996;BME280;3026;53.612;7.278;2023-03-12T05:03:51;100842.59;;;0.73;100.00
5996;BME280;3026;53.612;7.278;2023-03-12T05:06:18;100845.78;;;0.78;100.00
5996;BME280;3026;53.612;7.278;2023-03-12T05:08:45;100837.00;;;0.76;100.00
5996;BME280;3026;53.612;7.278;2023-03-12T05:11:13;100835.06;;;0.78;100.00
5996;BME280;3026;53.612;7.278;2023-03-12T05:13:40;100833.34;;;0.77;100.00
5996;BME280;3026;53.612;7.278;2023-03-12T05:16:09;100827.00;;;0.78;100.00
5996;BME280;3026;53.612;7.278;2023-03-12T05:18:37;100820.66;;;0.79;100.00
5996;BME280;3026;53.612;7.278;2023-03-12T05:21:06;100805.31;;;0.81;100.00
5996;BME280;3026;53.612;7.278;2023-03-12T05:23:34;100806.28;;;0.80;100.00
5996;BME280;3026;53.612;7.278;2023-03-12T05:26:04;100803.50;;;0.81;100.00
5996;BME280;3026;53.612;7.278;2023-03-12T05:28:31;100810.47;;;0.84;100.00
5996;BME280;3026;53.612;7.278;2023-03-12T05:30:59;100808.75;;;0.83;100.00
5996;BME280;3026;53.612;7.278;2023-03-12T05:33:28;100800.72;;;0.83;100.00
5996;BME280;3026;53.612;7.278;2023-03-12T05:35:54;100816.94;;;0.81;100.00
5996;BME280;3026;53.612;7.278;2023-03-12T05:38:21;100811.44;;;0.83;100.00
5996;BME280;3026;53.612;7.278;2023-03-12T05:40:52;100811.22;;;0.86;100.00
5996;BME280;3026;53.612;7.278;2023-03-12T05:43:19;100810.47;;;0.84;100.00
5996;BME280;3026;53.612;7.278;2023-03-12T05:45:46;100816.81;;;0.83;100.00
5996;BME280;3026;53.612;7.278;2023-03-12T05:48:12;100806.94;;;0.83;100.00
5996;BME280;3026;53.612;7.278;2023-03-12T05:50:41;100802.19;;;0.87;100.00
5996;BME280;3026;53.612;7.278;2023-03-12T05:53:08;100804.88;;;0.87;100.00
5996;BME280;3026;53.612;7.278;2023-03-12T05:55:35;100798.53;;;0.88;100.00
5996;BME280;3026;53.612;7.278;2023-03-12T05:58:03;100782.44;;;0.88;100.00
5996;BME280;3026;53.612;7.278;2023-03-12T06:00:31;100785.84;;;0.90;100.00
5996;BME280;3026;53.612;7.278;2023-03-12T06:03:00;100775.97;;;0.91;100.00
5996;BME280;3026;53.612;7.278;2023-03-12T06:05:26;100774.25;;;0.90;100.00
5996;BME280;3026;53.612;7.278;2023-03-12T06:07:55;100780.47;;;0.90;100.00
5996;BME280;3026;53.612;7.278;2023-03-12T06:10:21;100779.50;;;0.91;100.00
5996;BME280;3026;53.612;7.278;2023-03-12T06:12:48;100790.13;;;0.93;100.00
5996;BME280;3026;53.612;7.278;2023-03-12T06:15:15;100782.00;;;0.94;100.00
5996;BME280;3026;53.612;7.278;2023-03-12T06:17:42;100767.81;;;0.92;100.00
5996;BME280;3026;53.612;7.278;2023-03-12T06:20:10;100780.06;;;0.96;100.00
5996;BME280;3026;53.612;7.278;2023-03-12T06:22:37;100774.69;;;0.96;100.00
5996;BME280;3026;53.612;7.278;2023-03-12T06:25:06;100774.69;;;0.96;100.00
5996;BME280;3026;53.612;7.278;2023-03-12T06:27:33;100778.09;;;0.98;100.00
5996;BME280;3026;53.612;7.278;2023-03-12T06:30:00;100777.88;;;1.01;100.00
5996;BME280;3026;53.612;7.278;2023-03-12T06:32:27;100779.59;;;1.02;100.00
5996;BME280;3026;53.612;7.278;2023-03-12T06:34:54;100768.00;;;1.02;100.00
5996;BME280;3026;53.612;7.278;2023-03-12T06:37:21;100760.91;;;1.01;100.00
5996;BME280;3026;53.612;7.278;2023-03-12T06:39:47;100766.69;;;1.07;100.00
5996;BME280;3026;53.612;7.278;2023-03-12T06:42:16;100762.28;;;1.06;100.00
5996;BME280;3026;53.612;7.278;2023-03-12T06:44:44;100750.81;;;1.04;100.00
5996;BME280;3026;53.612;7.278;2023-03-12T06:47:10;100755.22;;;1.05;100.00
5996;BME280;3026;53.612;7.278;2023-03-12T06:49:37;100758.53;;;1.09;100.00
5996;BME280;3026;53.612;7.278;2023-03-12T06:52:04;100763.88;;;1.09;100.00
5996;BME280;3026;53.612;7.278;2023-03-12T06:54:31;100763.03;;;1.08;100.00
5996;BME280;3026;53.612;7.278;2023-03-12T06:56:58;100766.47;;;1.10;100.00
5996;BME280;3026;53.612;7.278;2023-03-12T06:59:27;100766.22;;;1.13;100.00
5996;BME280;3026;53.612;7.278;2023-03-12T07:01:54;100748.41;;;1.12;100.00
5996;BME280;3026;53.612;7.278;2023-03-12T07:04:21;100760.66;;;1.16;100.00
5996;BME280;3026;53.612;7.278;2023-03-12T07:06:48;100753.53;;;1.15;100.00
5996;BME280;3026;53.612;7.278;2023-03-12T07:09:15;100762.56;;;1.14;100.00
5996;BME280;3026;53.612;7.278;2023-03-12T07:11:42;100761.81;;;1.12;100.00
5996;BME280;3026;53.612;7.278;2023-03-12T07:14:09;100776.75;;;1.16;100.00
5996;BME280;3026;53.612;7.278;2023-03-12T07:16:38;100772.13;;;1.19;100.00
5996;BME280;3026;53.612;7.278;2023-03-12T07:19:05;100762.34;;;1.17;100.00
5996;BME280;3026;53.612;7.278;2023-03-12T07:21:31;100754.81;;;1.23;100.00
5996;BME280;3026;53.612;7.278;2023-03-12T07:23:58;100748.44;;;1.24;100.00
5996;BME280;3026;53.612;7.278;2023-03-12T07:26:28;100739.31;;;1.26;100.00
5996;BME280;3026;53.612;7.278;2023-03-12T07:28:56;100736.53;;;1.28;100.00
5996;BME280;3026;53.612;7.278;2023-03-12T07:31:46;100739.72;;;1.33;100.00
5996;BME280;3026;53.612;7.278;2023-03-12T07:34:12;100741.41;;;1.34;100.00
5996;BME280;3026;53.612;7.278;2023-03-12T07:36:39;100738.59;;;1.35;100.00
5996;BME280;3026;53.612;7.278;2023-03-12T07:39:06;100738.38;;;1.38;100.00
5996;BME280;3026;53.612;7.278;2023-03-12T07:41:33;100728.28;;;1.42;100.00
5996;BME280;3026;53.612;7.278;2023-03-12T07:44:02;100725.84;;;1.50;100.00
5996;BME280;3026;53.612;7.278;2023-03-12T07:46:29;100727.09;;;1.57;100.00
5996;BME280;3026;53.612;7.278;2023-03-12T07:48:57;100718.06;;;1.58;100.00
5996;BME280;3026;53.612;7.278;2023-03-12T07:51:24;100720.28;;;1.64;100.00
5996;BME280;3026;53.612;7.278;2023-03-12T07:53:51;100717.09;;;1.70;100.00
5996;BME280;3026;53.612;7.278;2023-03-12T07:56:18;100707.84;;;1.74;100.00
5996;BME280;3026;53.612;7.278;2023-03-12T07:58:44;100714.94;;;1.75;100.00
5996;BME280;3026;53.612;7.278;2023-03-12T08:01:11;100704.19;;;1.75;100.00
5996;BME280;3026;53.612;7.278;2023-03-12T08:03:40;100702.56;;;1.84;100.00
5996;BME280;3026;53.612;7.278;2023-03-12T08:06:09;100692.22;;;1.91;100.00
5996;BME280;3026;53.612;7.278;2023-03-12T08:08:37;100693.44;;;1.98;100.00
5996;BME280;3026;53.612;7.278;2023-03-12T08:11:07;100683.66;;;2.08;100.00
5996;BME280;3026;53.612;7.278;2023-03-12T08:13:34;100692.22;;;2.13;100.00
5996;BME280;3026;53.612;7.278;2023-03-12T08:16:01;100691.72;;;2.19;100.00
5996;BME280;3026;53.612;7.278;2023-03-12T08:18:28;100679.75;;;2.23;100.00
5996;BME280;3026;53.612;7.278;2023-03-12T08:20:55;100683.91;;;2.27;100.00
5996;BME280;3026;53.612;7.278;2023-03-12T08:23:24;100680.22;;;2.28;100.00
5996;BME280;3026;53.612;7.278;2023-03-12T08:25:52;100674.97;;;2.27;100.00
5996;BME280;3026;53.612;7.278;2023-03-12T08:28:23;100679.97;;;2.31;100.00
5996;BME280;3026;53.612;7.278;2023-03-12T08:30:52;100688.53;;;2.37;100.00
5996;BME280;3026;53.612;7.278;2023-03-12T08:33:19;100690.13;;;2.39;100.00
5996;BME280;3026;53.612;7.278;2023-03-12T08:35:47;100691.72;;;2.42;100.00
5996;BME280;3026;53.612;7.278;2023-03-12T08:38:15;100689.78;;;2.44;100.00
5996;BME280;3026;53.612;7.278;2023-03-12T08:40:43;100692.34;;;2.45;100.00
5996;BME280;3026;53.612;7.278;2023-03-12T08:43:10;100681.44;;;2.47;100.00
5996;BME280;3026;53.612;7.278;2023-03-12T08:45:37;100688.41;;;2.49;100.00
5996;BME280;3026;53.612;7.278;2023-03-12T08:48:05;100667.00;;;2.48;100.00
5996;BME280;3026;53.612;7.278;2023-03-12T08:50:33;100664.56;;;2.56;100.00
5996;BME280;3026;53.612;7.278;2023-03-12T08:53:00;100654.00;;;2.53;100.00
5996;BME280;3026;53.612;7.278;2023-03-12T08:55:28;100663.56;;;2.57;100.00
5996;BME280;3026;53.612;7.278;2023-03-12T08:57:59;100661.34;;;2.62;100.00
5996;BME280;3026;53.612;7.278;2023-03-12T09:00:26;100657.41;;;2.66;100.00
5996;BME280;3026;53.612;7.278;2023-03-12T09:02:53;100648.13;;;2.70;100.00
5996;BME280;3026;53.612;7.278;2023-03-12T09:05:22;100647.59;;;2.76;100.00
5996;BME280;3026;53.612;7.278;2023-03-12T09:07:49;100637.19;;;2.83;100.00
5996;BME280;3026;53.612;7.278;2023-03-12T09:10:16;100631.41;;;2.87;100.00
5996;BME280;3026;53.612;7.278;2023-03-12T09:12:43;100612.53;;;2.87;100.00
5996;BME280;3026;53.612;7.278;2023-03-12T09:15:12;100610.69;;;2.88;100.00
5996;BME280;3026;53.612;7.278;2023-03-12T09:17:39;100618.28;;;2.94;100.00
5996;BME280;3026;53.612;7.278;2023-03-12T09:20:08;100599.31;;;2.96;100.00
5996;BME280;3026;53.612;7.278;2023-03-12T09:22:38;100592.78;;;2.98;100.00
5996;BME280;3026;53.612;7.278;2023-03-12T09:25:07;100583.41;;;2.92;100.00
5996;BME280;3026;53.612;7.278;2023-03-12T09:27:35;100581.16;;;2.98;100.00
5996;BME280;3026;53.612;7.278;2023-03-12T09:30:04;100578.47;;;2.98;100.00
5996;BME280;3026;53.612;7.278;2023-03-12T09:32:33;100583.59;;;3.01;100.00
5996;BME280;3026;53.612;7.278;2023-03-12T09:35:00;100572.72;;;3.02;100.00
5996;BME280;3026;53.612;7.278;2023-03-12T09:37:27;100573.56;;;3.03;100.00
5996;BME280;3026;53.612;7.278;2023-03-12T09:39:56;100577.25;;;3.02;100.00
5996;BME280;3026;53.612;7.278;2023-03-12T09:42:26;100588.03;;;3.02;100.00
5996;BME280;3026;53.612;7.278;2023-03-12T09:44:58;100592.41;;;3.03;100.00
5996;BME280;3026;53.612;7.278;2023-03-12T09:47:29;100584.47;;;3.01;100.00
5996;BME280;3026;53.612;7.278;2023-03-12T09:50:04;100582.63;;;3.02;100.00
5996;BME280;3026;53.612;7.278;2023-03-12T09:52:39;100575.50;;;3.01;100.00
5996;BME280;3026;53.612;7.278;2023-03-12T09:55:12;100560.09;;;3.03;100.00
5996;BME280;3026;53.612;7.278;2023-03-12T09:57:40;100557.97;;;3.06;100.00
5996;BME280;3026;53.612;7.278;2023-03-12T10:00:11;100551.47;;;3.09;100.00
5996;BME280;3026;53.612;7.278;2023-03-12T10:02:52;100546.09;;;3.09;100.00
5996;BME280;3026;53.612;7.278;2023-03-12T10:05:32;100534.00;;;3.03;100.00
5996;BME280;3026;53.612;7.278;2023-03-12T10:08:04;100528.50;;;3.05;100.00
5996;BME280;3026;53.612;7.278;2023-03-12T10:10:47;100524.81;;;3.06;100.00
5996;BME280;3026;53.612;7.278;2023-03-12T10:13:31;100516.25;;;3.01;100.00
5996;BME280;3026;53.612;7.278;2023-03-12T10:16:13;100510.88;;;3.01;100.00
5996;BME280;3026;53.612;7.278;2023-03-12T10:18:54;100498.38;;;3.00;100.00
5996;BME280;3026;53.612;7.278;2023-03-12T10:21:29;100500.69;;;3.04;100.00
5996;BME280;3026;53.612;7.278;2023-03-12T10:24:14;100503.78;;;3.00;100.00
5996;BME280;3026;53.612;7.278;2023-03-12T10:26:54;100504.63;;;3.00;100.00
5996;BME280;3026;53.612;7.278;2023-03-12T10:29:23;100505.75;;;2.98;100.00
5996;BME280;3026;53.612;7.278;2023-03-12T10:31:54;100512.13;;;2.97;100.00
5996;BME280;3026;53.612;7.278;2023-03-12T10:34:29;100515.81;;;2.96;100.00
5996;BME280;3026;53.612;7.278;2023-03-12T10:37:02;100510.81;;;2.91;100.00
5996;BME280;3026;53.612;7.278;2023-03-12T10:39:30;100515.47;;;2.89;100.00
5996;BME280;3026;53.612;7.278;2023-03-12T10:42:00;100512.91;;;2.87;100.00
5996;BME280;3026;53.612;7.278;2023-03-12T10:44:28;100505.81;;;2.86;100.00
5996;BME280;3026;53.612;7.278;2023-03-12T10:47:09;100494.91;;;2.88;100.00
5996;BME280;3026;53.612;7.278;2023-03-12T10:49:42;100489.66;;;2.86;100.00
5996;BME280;3026;53.612;7.278;2023-03-12T10:52:17;100491.50;;;2.86;100.00
5996;BME280;3026;53.612;7.278;2023-03-12T10:54:46;100486.97;;;2.86;100.00
5996;BME280;3026;53.612;7.278;2023-03-12T10:57:15;100478.19;;;2.84;100.00
5996;BME280;3026;53.612;7.278;2023-03-12T10:59:43;100476.19;;;2.86;100.00
5996;BME280;3026;53.612;7.278;2023-03-12T11:02:30;100466.41;;;2.85;100.00
5996;BME280;3026;53.612;7.278;2023-03-12T11:04:58;100462.00;;;2.84;100.00
5996;BME280;3026;53.612;7.278;2023-03-12T11:07:29;100456.34;;;2.87;100.00
5996;BME280;3026;53.612;7.278;2023-03-12T11:10:20;100461.75;;;2.87;100.00
5996;BME280;3026;53.612;7.278;2023-03-12T11:13:00;100460.19;;;2.85;100.00
5996;BME280;3026;53.612;7.278;2023-03-12T11:15:30;100460.31;;;2.83;100.00
5996;BME280;3026;53.612;7.278;2023-03-12T11:21:13;100430.25;;;2.78;100.00
5996;BME280;3026;53.612;7.278;2023-03-12T11:23:45;100429.97;;;2.81;100.00
5996;BME280;3026;53.612;7.278;2023-03-12T11:26:16;100435.09;;;2.84;100.00
5996;BME280;3026;53.612;7.278;2023-03-12T11:28:47;100435.09;;;2.84;100.00
5996;BME280;3026;53.612;7.278;2023-03-12T11:31:19;100444.16;;;2.83;100.00
5996;BME280;3026;53.612;7.278;2023-03-12T11:33:47;100436.50;;;2.79;100.00
5996;BME280;3026;53.612;7.278;2023-03-12T11:36:27;100421.69;;;2.73;100.00
5996;BME280;3026;53.612;7.278;2023-03-12T11:39:05;100411.50;;;2.77;100.00
5996;BME280;3026;53.612;7.278;2023-03-12T11:42:02;100410.41;;;2.79;100.00
5996;BME280;3026;53.612;7.278;2023-03-12T11:44:39;100411.41;;;2.78;100.00
5996;BME280;3026;53.612;7.278;2023-03-12T11:47:18;100395.25;;;2.78;100.00
5996;BME280;3026;53.612;7.278;2023-03-12T11:52:47;100401.94;;;2.84;100.00
5996;BME280;3026;53.612;7.278;2023-03-12T11:55:37;100388.88;;;2.79;100.00
5996;BME280;3026;53.612;7.278;2023-03-12T11:58:23;100381.50;;;2.81;100.00
5996;BME280;3026;53.612;7.278;2023-03-12T12:01:00;100378.81;;;2.81;100.00
5996;BME280;3026;53.612;7.278;2023-03-12T12:03:53;100372.31;;;2.84;100.00
5996;BME280;3026;53.612;7.278;2023-03-12T12:06:27;100368.75;;;2.83;100.00
5996;BME280;3026;53.612;7.278;2023-03-12T12:09:09;100362.25;;;2.86;100.00
5996;BME280;3026;53.612;7.278;2023-03-12T12:11:50;100353.03;;;2.88;100.00
5996;BME280;3026;53.612;7.278;2023-03-12T12:14:31;100361.97;;;2.89;100.00
5996;BME280;3026;53.612;7.278;2023-03-12T12:17:11;100353.78;;;2.90;100.00
5996;BME280;3026;53.612;7.278;2023-03-12T12:20:00;100341.03;;;2.92;100.00
5996;BME280;3026;53.612;7.278;2023-03-12T12:22:40;100339.06;;;2.95;100.00
5996;BME280;3026;53.612;7.278;2023-03-12T12:25:28;100322.91;;;2.95;100.00
5996;BME280;3026;53.612;7.278;2023-03-12T12:28:16;100314.69;;;2.96;100.00
5996;BME280;3026;53.612;7.278;2023-03-12T12:30:53;100311.84;;;2.98;100.00
5996;BME280;3026;53.612;7.278;2023-03-12T12:33:33;100294.28;;;3.03;100.00
5996;BME280;3026;53.612;7.278;2023-03-12T12:36:07;100294.88;;;3.07;100.00
5996;BME280;3026;53.612;7.278;2023-03-12T12:38:38;100293.72;;;3.09;100.00
5996;BME280;3026;53.612;7.278;2023-03-12T12:41:08;100301.66;;;3.11;100.00
5996;BME280;3026;53.612;7.278;2023-03-12T12:43:39;100306.81;;;3.14;100.00
5996;BME280;3026;53.612;7.278;2023-03-12T12:46:11;100290.34;;;3.17;100.00
5996;BME280;3026;53.612;7.278;2023-03-12T12:48:42;100270.50;;;3.18;100.00
5996;BME280;3026;53.612;7.278;2023-03-12T12:51:11;100296.16;;;3.22;100.00
5996;BME280;3026;53.612;7.278;2023-03-12T12:53:43;100308.53;;;3.25;100.00
5996;BME280;3026;53.612;7.278;2023-03-12T12:56:18;100312.78;;;3.27;100.00
5996;BME280;3026;53.612;7.278;2023-03-12T12:58:59;100305.13;;;3.32;100.00
5996;BME280;3026;53.612;7.278;2023-03-12T13:01:29;100295.78;;;3.36;100.00
5996;BME280;3026;53.612;7.278;2023-03-12T13:04:02;100290.13;;;3.39;100.00
5996;BME280;3026;53.612;7.278;2023-03-12T13:06:58;100284.44;;;3.42;100.00
5996;BME280;3026;53.612;7.278;2023-03-12T13:09:38;100296.63;;;3.46;100.00
5996;BME280;3026;53.612;7.278;2023-03-12T13:12:19;100291.97;;;3.48;100.00
5996;BME280;3026;53.612;7.278;2023-03-12T13:14:48;100292.69;;;3.50;100.00
5996;BME280;3026;53.612;7.278;2023-03-12T13:17:21;100274.22;;;3.56;100.00
5996;BME280;3026;53.612;7.278;2023-03-12T13:19:49;100275.66;;;3.60;100.00
5996;BME280;3026;53.612;7.278;2023-03-12T13:22:24;100275.38;;;3.63;100.00
5996;BME280;3026;53.612;7.278;2023-03-12T13:24:57;100276.78;;;3.67;100.00
5996;BME280;3026;53.612;7.278;2023-03-12T13:27:29;100276.22;;;3.73;100.00
5996;BME280;3026;53.612;7.278;2023-03-12T13:29:57;100281.03;;;3.79;100.00
5996;BME280;3026;53.612;7.278;2023-03-12T13:32:38;100271.53;;;3.85;100.00